Time;durP1;ratioP1;P1;durP2;ratioP2;P2;SDS_P1;SDS_P2;PMS_P1;PMS_P2;Temp;Humidity;BMP_temperature;BMP_pressure;BME280_temperature;BME280_humidity;BME280_pressure;Samples;Min_cycle;Max_cycle;Signal;HPM_P1;HPM_P2
2021/10/23 00:00:34;;;;;;;63.70;60.07;;;6.10;99.90;;;;;;4364852;32;20153;-63
2021/10/23 00:03:02;;;;;;;62.10;58.67;;;6.00;99.90;;;;;;4366069;32;20536;-64
2021/10/23 00:05:29;;;;;;;61.80;58.07;;;6.10;99.90;;;;;;4368240;32;20152;-63
2021/10/23 00:07:56;;;;;;;68.27;64.50;;;6.30;99.90;;;;;;4367192;32;20200;-61
2021/10/23 00:10:23;;;;;;;63.67;60.23;;;6.30;99.90;;;;;;4368433;32;20236;-61
2021/10/23 00:12:50;;;;;;;63.60;59.97;;;6.20;99.90;;;;;;4366216;32;20629;-62
2021/10/23 00:15:17;;;;;;;64.70;60.93;;;6.10;99.90;;;;;;4366838;32;20168;-62
2021/10/23 00:17:44;;;;;;;61.87;58.33;;;6.10;99.90;;;;;;4364589;32;20213;-62
2021/10/23 00:20:13;;;;;;;61.43;57.93;;;6.10;99.90;;;;;;4363251;32;20157;-62
2021/10/23 00:22:40;;;;;;;61.40;57.73;;;6.10;99.90;;;;;;4365599;32;20585;-62
2021/10/23 00:25:08;;;;;;;59.83;56.53;;;6.20;99.90;;;;;;4364953;32;20447;-62
2021/10/23 00:27:35;;;;;;;62.67;58.90;;;6.20;99.90;;;;;;4365000;32;20191;-62
2021/10/23 00:30:03;;;;;;;62.77;59.30;;;6.30;99.90;;;;;;4360862;33;20164;-61
2021/10/23 00:32:30;;;;;;;61.93;58.43;;;6.40;99.90;;;;;;4362353;32;20187;-63
2021/10/23 00:34:59;;;;;;;59.83;56.63;;;6.50;99.90;;;;;;4362442;32;20220;-62
2021/10/23 00:37:28;;;;;;;47.73;44.77;;;6.20;99.90;;;;;;4359622;32;20172;-61
2021/10/23 00:39:54;;;;;;;51.37;48.27;;;6.10;99.90;;;;;;4361139;32;20163;-62
2021/10/23 00:42:21;;;;;;;48.90;46.00;;;6.00;99.90;;;;;;4359881;32;20152;-62
2021/10/23 00:44:48;;;;;;;41.73;39.53;;;5.90;99.90;;;;;;4359592;32;20167;-62
2021/10/23 00:47:17;;;;;;;42.47;40.00;;;5.90;99.90;;;;;;4358781;32;20164;-62
2021/10/23 00:49:46;;;;;;;38.13;35.73;;;5.80;99.90;;;;;;4355526;33;20191;-62
2021/10/23 00:52:13;;;;;;;38.40;36.33;;;5.80;99.90;;;;;;4349798;33;20137;-62
2021/10/23 00:54:42;;;;;;;37.17;34.97;;;5.70;99.90;;;;;;4360747;32;20183;-63
2021/10/23 00:57:09;;;;;;;36.67;34.37;;;5.70;99.90;;;;;;4360401;32;20153;-61
2021/10/23 00:59:36;;;;;;;38.87;36.67;;;5.60;99.90;;;;;;4361024;32;20207;-61
2021/10/23 01:02:06;;;;;;;38.40;35.90;;;5.60;99.90;;;;;;4359697;32;20183;-62
2021/10/23 01:04:34;;;;;;;38.33;36.13;;;5.60;99.90;;;;;;4359681;32;20153;-62
2021/10/23 01:07:01;;;;;;;38.93;36.43;;;5.60;99.90;;;;;;4359969;33;20156;-61
2021/10/23 01:09:28;;;;;;;38.80;36.63;;;5.60;99.90;;;;;;4360650;32;20164;-62
2021/10/23 01:11:57;;;;;;;36.77;34.17;;;5.50;99.90;;;;;;4359950;32;20164;-62
2021/10/23 01:14:26;;;;;;;38.10;35.80;;;5.50;99.90;;;;;;4359947;33;20175;-62
2021/10/23 01:16:56;;;;;;;40.23;37.97;;;5.50;99.90;;;;;;4359845;32;20179;-61
2021/10/23 01:19:22;;;;;;;36.90;34.60;;;5.50;99.90;;;;;;4360749;32;20167;-63
2021/10/23 01:21:52;;;;;;;35.63;33.43;;;5.50;99.90;;;;;;4359929;32;20180;-61
2021/10/23 01:24:20;;;;;;;39.03;36.83;;;5.50;99.90;;;;;;4362411;32;20157;-62
2021/10/23 01:26:48;;;;;;;38.37;35.97;;;5.50;99.90;;;;;;4360607;32;20183;-61
2021/10/23 01:29:17;;;;;;;39.63;37.43;;;5.40;99.90;;;;;;4360925;32;20240;-61
2021/10/23 01:31:47;;;;;;;36.93;34.80;;;5.50;99.90;;;;;;4359615;32;20208;-61
2021/10/23 01:34:16;;;;;;;40.23;37.73;;;5.40;99.90;;;;;;4357101;33;20163;-62
2021/10/23 01:36:45;;;;;;;37.20;34.70;;;5.40;99.90;;;;;;4360007;33;20141;-62
2021/10/23 01:39:14;;;;;;;35.67;33.77;;;5.40;99.90;;;;;;4360042;33;20133;-61
2021/10/23 01:41:41;;;;;;;36.37;34.37;;;5.30;99.90;;;;;;4359259;33;20574;-62
2021/10/23 01:44:09;;;;;;;39.40;36.90;;;5.20;99.90;;;;;;4360915;33;20587;-62
2021/10/23 01:46:36;;;;;;;34.97;32.70;;;5.20;99.90;;;;;;4361326;33;20667;-62
2021/10/23 01:49:05;;;;;;;39.97;37.13;;;5.20;99.90;;;;;;4353627;33;20145;-62
2021/10/23 01:51:32;;;;;;;41.70;38.97;;;5.20;99.90;;;;;;4359747;33;20502;-61
2021/10/23 01:54:01;;;;;;;34.60;32.37;;;5.10;99.90;;;;;;4359786;33;20565;-61
2021/10/23 01:56:29;;;;;;;39.80;37.80;;;5.20;99.90;;;;;;4362388;32;20195;-61
2021/10/23 01:58:56;;;;;;;37.53;35.13;;;5.10;99.90;;;;;;4363595;32;20219;-62
2021/10/23 02:01:23;;;;;;;39.50;37.30;;;5.10;99.90;;;;;;4362366;33;20277;-61
2021/10/23 02:03:50;;;;;;;36.37;34.17;;;5.10;99.90;;;;;;4362226;32;20215;-62
2021/10/23 02:06:17;;;;;;;39.90;37.60;;;5.10;99.90;;;;;;4362970;32;20187;-61
2021/10/23 02:08:44;;;;;;;39.10;37.13;;;5.10;99.90;;;;;;4362433;32;20188;-61
2021/10/23 02:11:11;;;;;;;41.37;39.03;;;5.10;99.90;;;;;;4362850;32;20183;-62
2021/10/23 02:13:39;;;;;;;40.10;37.60;;;5.10;99.90;;;;;;4361839;32;20156;-62
2021/10/23 02:16:07;;;;;;;40.87;38.23;;;5.10;99.90;;;;;;4362783;33;20192;-62
2021/10/23 02:18:34;;;;;;;38.57;36.03;;;5.10;99.90;;;;;;4362229;33;20153;-61
2021/10/23 02:21:00;;;;;;;36.43;34.43;;;5.00;99.90;;;;;;4362750;32;20141;-61
2021/10/23 02:23:27;;;;;;;34.73;32.93;;;5.00;99.90;;;;;;4362209;33;20159;-61
2021/10/23 02:25:54;;;;;;;33.93;32.10;;;5.00;99.90;;;;;;4362261;33;20148;-62
2021/10/23 02:28:21;;;;;;;32.33;30.00;;;4.90;99.90;;;;;;4363526;32;20533;-63
2021/10/23 02:30:50;;;;;;;31.20;29.67;;;4.90;99.90;;;;;;4364127;32;20577;-61
2021/10/23 02:33:17;;;;;;;32.97;31.17;;;4.80;99.90;;;;;;4363186;32;20196;-62
2021/10/23 02:35:44;;;;;;;31.70;29.70;;;4.80;99.90;;;;;;4361529;32;20149;-60
2021/10/23 02:38:11;;;;;;;31.97;30.07;;;4.80;99.90;;;;;;4362283;32;20570;-61
2021/10/23 02:40:39;;;;;;;33.60;31.73;;;4.80;99.90;;;;;;4362769;32;20211;-62
2021/10/23 02:43:09;;;;;;;30.77;28.93;;;4.80;99.90;;;;;;4362398;32;20206;-62
2021/10/23 02:45:37;;;;;;;31.13;29.20;;;4.70;99.90;;;;;;4361534;33;20235;-61
2021/10/23 02:48:06;;;;;;;28.60;26.87;;;4.70;99.90;;;;;;4362650;32;20161;-61
2021/10/23 02:50:33;;;;;;;31.00;28.83;;;4.60;99.90;;;;;;4361833;32;20153;-62
2021/10/23 02:53:00;;;;;;;30.23;28.50;;;4.60;99.90;;;;;;4362768;32;20148;-62
2021/10/23 02:55:27;;;;;;;31.43;29.23;;;4.60;99.90;;;;;;4362037;33;20194;-62
2021/10/23 02:57:54;;;;;;;28.30;25.47;;;4.60;99.90;;;;;;4363369;32;20175;-62
2021/10/23 03:00:22;;;;;;;29.83;27.93;;;4.60;99.90;;;;;;4363232;32;20153;-61
2021/10/23 03:02:49;;;;;;;34.40;32.60;;;4.50;99.90;;;;;;4361906;33;20574;-61
2021/10/23 03:05:18;;;;;;;36.93;34.73;;;4.60;99.90;;;;;;4363038;32;20855;-61
2021/10/23 03:07:46;;;;;;;35.77;33.77;;;4.60;99.90;;;;;;4361744;32;20185;-62
2021/10/23 03:10:14;;;;;;;36.50;34.07;;;4.50;99.90;;;;;;4350552;33;20141;-61
2021/10/23 03:12:41;;;;;;;36.53;34.50;;;4.50;99.90;;;;;;4361242;33;20543;-61
2021/10/23 03:15:11;;;;;;;36.80;34.50;;;4.50;99.90;;;;;;4362247;32;20175;-60
2021/10/23 03:17:38;;;;;;;35.50;32.93;;;4.50;99.90;;;;;;4361324;32;20171;-61
2021/10/23 03:20:06;;;;;;;38.27;36.07;;;4.40;99.90;;;;;;4361118;33;20216;-61
2021/10/23 03:22:35;;;;;;;43.87;41.57;;;4.40;99.90;;;;;;4361770;32;20157;-63
2021/10/23 03:25:02;;;;;;;39.47;37.27;;;4.30;99.90;;;;;;4363246;32;20160;-62
2021/10/23 03:27:29;;;;;;;41.30;38.30;;;4.40;99.90;;;;;;4359907;32;20160;-61
2021/10/23 03:29:56;;;;;;;37.60;35.50;;;4.30;99.90;;;;;;4361766;33;20196;-61
2021/10/23 03:32:23;;;;;;;41.63;38.97;;;4.20;99.90;;;;;;4361172;33;20584;-63
2021/10/23 03:34:51;;;;;;;35.70;33.60;;;4.20;99.90;;;;;;4362393;32;20175;-62
2021/10/23 03:37:18;;;;;;;34.97;32.90;;;4.20;99.90;;;;;;4360841;32;20225;-61
2021/10/23 03:39:47;;;;;;;31.10;29.20;;;4.10;99.90;;;;;;4361167;33;20258;-63
2021/10/23 03:42:14;;;;;;;30.17;28.43;;;4.10;99.90;;;;;;4361633;32;20197;-61
2021/10/23 03:44:41;;;;;;;31.60;29.93;;;4.10;99.90;;;;;;4362790;32;20236;-61
2021/10/23 03:47:08;;;;;;;37.13;35.10;;;4.10;99.90;;;;;;4361984;32;20148;-61
2021/10/23 03:49:34;;;;;;;39.20;36.60;;;4.10;99.90;;;;;;4360527;33;20149;-61
2021/10/23 03:52:01;;;;;;;34.57;32.67;;;4.10;99.90;;;;;;4360715;32;20173;-61
2021/10/23 03:54:28;;;;;;;32.53;30.93;;;4.00;99.90;;;;;;4361113;33;20172;-61
2021/10/23 03:56:56;;;;;;;35.93;33.73;;;4.00;99.90;;;;;;4362251;32;20161;-61
2021/10/23 03:59:23;;;;;;;34.33;32.53;;;4.00;99.90;;;;;;4362255;32;20148;-61
2021/10/23 04:01:50;;;;;;;37.20;35.00;;;4.00;99.90;;;;;;4359526;33;20573;-61
2021/10/23 04:04:17;;;;;;;39.97;37.97;;;4.00;99.90;;;;;;4352275;32;20150;-61
2021/10/23 04:06:44;;;;;;;38.27;36.27;;;4.00;99.90;;;;;;4362213;32;20157;-62
2021/10/23 04:09:11;;;;;;;42.90;40.57;;;4.00;99.90;;;;;;4361134;32;20581;-61
2021/10/23 04:11:38;;;;;;;42.53;40.23;;;4.00;99.90;;;;;;4360994;32;20581;-61
2021/10/23 04:14:06;;;;;;;44.60;42.30;;;4.00;99.90;;;;;;4348886;32;20148;-61
2021/10/23 04:16:33;;;;;;;42.27;39.83;;;4.10;99.90;;;;;;4360195;33;20152;-61
2021/10/23 04:19:00;;;;;;;38.73;36.43;;;4.00;99.90;;;;;;4361176;32;20156;-61
2021/10/23 04:21:26;;;;;;;44.27;41.77;;;4.00;99.90;;;;;;4360887;32;20207;-61
2021/10/23 04:23:53;;;;;;;43.30;40.53;;;4.00;99.90;;;;;;4360784;32;20171;-61
2021/10/23 04:26:20;;;;;;;41.07;38.70;;;4.00;99.90;;;;;;4360833;33;20145;-61
2021/10/23 04:28:47;;;;;;;40.83;38.60;;;4.00;99.90;;;;;;4360593;32;20225;-61
2021/10/23 04:31:16;;;;;;;42.60;40.40;;;3.90;99.90;;;;;;4354873;33;20175;-61
2021/10/23 04:33:45;;;;;;;42.90;40.53;;;3.90;99.90;;;;;;4362625;32;20145;-61
2021/10/23 04:36:12;;;;;;;35.83;34.03;;;3.90;99.90;;;;;;4357031;32;20239;-61
2021/10/23 04:38:39;;;;;;;38.70;36.57;;;3.90;99.90;;;;;;4360253;33;20180;-61
2021/10/23 04:41:05;;;;;;;39.50;37.53;;;3.90;99.90;;;;;;4360328;33;20164;-61
2021/10/23 04:43:32;;;;;;;40.03;38.03;;;3.90;99.90;;;;;;4360584;33;20160;-61
2021/10/23 04:45:59;;;;;;;39.37;37.00;;;3.90;99.90;;;;;;4360286;32;20183;-61
2021/10/23 04:48:27;;;;;;;40.20;37.47;;;3.90;99.90;;;;;;4361556;32;20151;-61
2021/10/23 04:50:57;;;;;;;40.67;38.07;;;3.90;99.90;;;;;;4359921;33;20236;-61
2021/10/23 04:53:23;;;;;;;36.57;34.67;;;3.90;99.90;;;;;;4362140;32;20506;-61
2021/10/23 04:55:50;;;;;;;33.37;31.60;;;3.80;99.90;;;;;;4362102;32;20178;-61
2021/10/23 04:58:17;;;;;;;36.97;34.97;;;3.70;99.90;;;;;;4360119;33;20169;-61
2021/10/23 05:00:44;;;;;;;30.73;28.93;;;3.70;99.90;;;;;;4361878;32;20150;-61
2021/10/23 05:03:11;;;;;;;29.97;28.37;;;3.70;99.90;;;;;;4357288;33;20162;-61
2021/10/23 05:05:39;;;;;;;32.83;30.77;;;3.60;99.90;;;;;;4360924;32;20176;-61
2021/10/23 05:08:06;;;;;;;31.03;29.43;;;3.60;99.90;;;;;;4359853;33;20191;-61
2021/10/23 05:10:33;;;;;;;32.10;30.37;;;3.60;99.90;;;;;;4361514;32;20627;-61
2021/10/23 05:13:00;;;;;;;31.40;29.53;;;3.60;99.90;;;;;;4361507;32;20154;-61
2021/10/23 05:15:27;;;;;;;32.17;29.67;;;3.60;99.90;;;;;;4359926;33;20165;-62
2021/10/23 05:17:54;;;;;;;31.53;29.83;;;3.50;99.90;;;;;;4359963;33;20183;-61
2021/10/23 05:20:20;;;;;;;30.53;28.70;;;3.50;99.90;;;;;;4359934;32;20163;-61
2021/10/23 05:22:49;;;;;;;33.13;31.23;;;3.50;99.90;;;;;;4361808;32;20577;-61
2021/10/23 05:25:15;;;;;;;34.27;31.90;;;3.40;99.90;;;;;;4360630;32;20166;-61
2021/10/23 05:27:42;;;;;;;30.53;29.03;;;3.40;99.90;;;;;;4359937;32;20168;-61
2021/10/23 05:30:09;;;;;;;30.00;28.30;;;3.40;99.90;;;;;;4361611;32;20179;-61
2021/10/23 05:32:36;;;;;;;32.27;30.13;;;3.40;99.90;;;;;;4360179;32;20519;-60
2021/10/23 05:35:03;;;;;;;30.57;28.57;;;3.40;99.90;;;;;;4360629;32;20176;-60
2021/10/23 05:37:30;;;;;;;30.87;28.90;;;3.30;99.90;;;;;;4355498;33;20545;-61
2021/10/23 05:39:58;;;;;;;34.23;31.97;;;3.30;99.90;;;;;;4361549;32;20210;-61
2021/10/23 05:42:25;;;;;;;35.90;33.60;;;3.30;99.90;;;;;;4359212;33;20151;-61
2021/10/23 05:44:52;;;;;;;38.17;35.87;;;3.40;99.90;;;;;;4360000;33;20148;-61
2021/10/23 05:47:19;;;;;;;33.50;31.60;;;3.40;99.90;;;;;;4360675;33;20198;-61
2021/10/23 05:49:46;;;;;;;36.80;34.33;;;3.30;99.90;;;;;;4359091;33;20196;-62
2021/10/23 05:52:12;;;;;;;36.50;34.43;;;3.30;99.90;;;;;;4360033;32;20145;-61
2021/10/23 05:54:39;;;;;;;38.77;36.47;;;3.30;99.90;;;;;;4359473;33;20570;-61
2021/10/23 05:57:09;;;;;;;39.80;37.03;;;3.30;99.90;;;;;;4361651;33;20180;-60
2021/10/23 05:59:40;;;;;;;45.53;43.00;;;3.40;99.90;;;;;;4360239;33;20160;-61
2021/10/23 06:02:21;;;;;;;49.00;46.17;;;3.50;99.90;;;;;;4360873;33;20492;-62
2021/10/23 06:04:49;;;;;;;44.23;41.83;;;3.50;99.90;;;;;;4359051;33;20148;-62
2021/10/23 06:07:15;;;;;;;47.20;44.70;;;3.50;99.90;;;;;;4358960;33;20178;-62
2021/10/23 06:09:43;;;;;;;49.20;46.63;;;3.60;99.90;;;;;;4360107;33;20149;-61
2021/10/23 06:12:11;;;;;;;53.53;50.73;;;3.70;99.90;;;;;;4359360;32;20540;-61
2021/10/23 06:14:38;;;;;;;51.67;48.97;;;3.70;99.90;;;;;;4360009;33;20487;-62
2021/10/23 06:17:05;;;;;;;53.97;51.20;;;3.80;99.90;;;;;;4358877;33;20235;-62
2021/10/23 06:19:32;;;;;;;55.37;52.30;;;3.80;99.90;;;;;;4358922;33;20222;-61
2021/10/23 06:21:59;;;;;;;53.93;51.23;;;3.80;99.90;;;;;;4357491;32;20227;-60
2021/10/23 06:24:26;;;;;;;57.23;54.13;;;3.90;99.90;;;;;;4359555;33;20152;-61
2021/10/23 06:26:53;;;;;;;51.80;49.30;;;4.00;99.90;;;;;;4360078;32;20294;-61
2021/10/23 06:29:21;;;;;;;55.67;52.60;;;4.10;99.90;;;;;;4356983;33;20357;-60
2021/10/23 06:31:48;;;;;;;53.73;50.97;;;4.20;99.90;;;;;;4359097;32;20555;-61
2021/10/23 06:34:15;;;;;;;56.13;52.70;;;4.20;99.90;;;;;;4358186;32;20250;-60
2021/10/23 06:36:42;;;;;;;53.37;50.23;;;4.30;99.90;;;;;;4360668;33;20228;-61
2021/10/23 06:39:09;;;;;;;55.60;52.80;;;4.40;99.90;;;;;;4358103;33;20183;-60
2021/10/23 06:41:36;;;;;;;56.83;53.63;;;4.50;99.90;;;;;;4358249;32;20219;-61
2021/10/23 06:44:03;;;;;;;55.03;52.23;;;4.60;99.90;;;;;;4363068;32;20149;-61
2021/10/23 06:46:31;;;;;;;60.57;57.23;;;4.70;99.90;;;;;;4361519;32;20617;-61
2021/10/23 06:48:58;;;;;;;54.33;51.50;;;4.80;99.90;;;;;;4361255;32;20190;-60
2021/10/23 06:51:25;;;;;;;55.83;52.90;;;4.90;99.90;;;;;;4360341;32;20147;-61
2021/10/23 06:53:55;;;;;;;54.57;51.50;;;5.00;99.90;;;;;;4360614;32;20216;-61
2021/10/23 06:56:21;;;;;;;59.07;55.90;;;5.10;99.90;;;;;;4360162;32;20160;-60
2021/10/23 06:58:48;;;;;;;53.07;50.20;;;5.20;99.90;;;;;;4362326;32;20585;-60
2021/10/23 07:01:15;;;;;;;52.03;48.80;;;5.30;99.90;;;;;;4360337;32;20723;-61
2021/10/23 07:03:44;;;;;;;51.60;48.70;;;5.30;99.90;;;;;;4361165;32;20558;-60
2021/10/23 07:06:11;;;;;;;57.17;53.20;;;5.40;99.90;;;;;;4362380;32;20164;-62
2021/10/23 07:08:37;;;;;;;53.67;50.13;;;5.40;99.90;;;;;;4360919;32;20163;-61
2021/10/23 07:11:05;;;;;;;45.43;42.47;;;5.50;99.90;;;;;;4359858;32;20614;-61
2021/10/23 07:13:32;;;;;;;45.73;42.73;;;5.50;99.90;;;;;;4362722;32;20648;-61
2021/10/23 07:15:58;;;;;;;43.30;40.47;;;5.50;99.90;;;;;;4363327;32;20217;-61
2021/10/23 07:18:25;;;;;;;46.97;44.13;;;5.60;99.90;;;;;;4361873;32;20173;-61
2021/10/23 07:20:53;;;;;;;49.53;46.27;;;5.70;99.90;;;;;;4361008;32;20314;-61
2021/10/23 07:23:20;;;;;;;48.87;45.70;;;5.80;99.90;;;;;;4361284;32;20537;-62
2021/10/23 07:25:47;;;;;;;47.37;44.07;;;5.90;99.90;;;;;;4361431;32;20181;-61
2021/10/23 07:28:14;;;;;;;52.50;49.00;;;6.10;99.90;;;;;;4360643;32;20148;-62
2021/10/23 07:30:41;;;;;;;53.17;49.67;;;6.20;99.90;;;;;;4359159;32;20184;-61
2021/10/23 07:33:08;;;;;;;51.77;48.27;;;6.30;99.90;;;;;;4361642;32;20164;-62
2021/10/23 07:35:35;;;;;;;53.97;50.80;;;6.40;99.90;;;;;;4359818;32;20549;-61
2021/10/23 07:38:04;;;;;;;53.17;49.83;;;6.50;99.90;;;;;;4360942;32;20176;-61
2021/10/23 07:40:31;;;;;;;49.73;46.73;;;6.60;99.90;;;;;;4361309;32;20187;-61
2021/10/23 07:42:58;;;;;;;51.07;47.87;;;6.80;99.90;;;;;;4360985;32;20187;-61
2021/10/23 07:45:26;;;;;;;53.87;50.70;;;6.90;99.90;;;;;;4362806;32;20168;-62
2021/10/23 07:47:52;;;;;;;57.13;53.50;;;7.00;99.90;;;;;;4363191;32;20141;-61
2021/10/23 07:50:22;;;;;;;54.00;50.80;;;7.10;99.90;;;;;;4362391;32;20157;-61
2021/10/23 07:52:49;;;;;;;55.47;52.47;;;7.20;99.90;;;;;;4362288;32;20145;-61
2021/10/23 07:55:17;;;;;;;53.40;50.40;;;7.30;99.90;;;;;;4361989;32;20517;-60
2021/10/23 07:57:44;;;;;;;54.03;50.63;;;7.30;99.90;;;;;;4361411;32;20153;-63
2021/10/23 08:00:14;;;;;;;50.10;47.10;;;7.30;99.90;;;;;;4361827;32;20228;-62
2021/10/23 08:02:52;;;;;;;49.63;46.57;;;7.30;99.90;;;;;;4361496;32;20223;-61
2021/10/23 08:05:20;;;;;;;45.37;42.00;;;7.40;99.90;;;;;;4360707;32;20546;-62
2021/10/23 08:07:47;;;;;;;45.90;43.20;;;7.40;99.90;;;;;;4360417;32;20160;-61
2021/10/23 08:10:14;;;;;;;47.13;44.17;;;7.40;99.90;;;;;;4361347;32;20586;-61
2021/10/23 08:12:43;;;;;;;44.63;41.57;;;7.50;99.90;;;;;;4361590;32;20610;-61
2021/10/23 08:15:10;;;;;;;45.87;42.73;;;7.60;99.90;;;;;;4359856;32;20188;-61
2021/10/23 08:17:38;;;;;;;42.90;40.10;;;7.60;99.90;;;;;;4358891;32;20645;-61
2021/10/23 08:20:06;;;;;;;47.17;43.97;;;7.60;99.90;;;;;;4359466;32;20145;-61
2021/10/23 08:22:33;;;;;;;48.70;45.53;;;7.70;99.90;;;;;;4356683;32;20173;-62
2021/10/23 08:25:04;;;;;;;49.47;46.07;;;7.80;99.90;;;;;;4361450;32;20195;-61
2021/10/23 08:27:31;;;;;;;49.80;46.63;;;8.00;99.90;;;;;;4361908;32;20180;-61
2021/10/23 08:30:00;;;;;;;62.27;58.13;;;8.10;99.90;;;;;;4360060;32;20156;-63
2021/10/23 08:32:26;;;;;;;69.80;65.63;;;8.20;99.90;;;;;;4359504;32;20152;-62
2021/10/23 08:34:55;;;;;;;70.17;66.07;;;8.40;99.90;;;;;;4359679;32;20164;-62
2021/10/23 08:37:22;;;;;;;72.77;68.27;;;8.50;99.90;;;;;;4361345;32;20148;-61
2021/10/23 08:39:50;;;;;;;69.37;65.40;;;8.50;99.90;;;;;;4359357;32;20224;-61
2021/10/23 08:42:18;;;;;;;74.80;70.27;;;8.60;99.90;;;;;;4357428;32;20160;-62
2021/10/23 08:44:46;;;;;;;72.63;68.13;;;8.70;99.90;;;;;;4360220;32;20145;-61
2021/10/23 08:47:15;;;;;;;76.20;71.60;;;8.70;99.90;;;;;;4359111;32;20492;-61
2021/10/23 08:49:43;;;;;;;75.47;71.10;;;8.70;99.90;;;;;;4357741;32;20254;-61
2021/10/23 08:52:11;;;;;;;78.33;73.57;;;8.70;99.90;;;;;;4357382;32;20267;-61
2021/10/23 08:54:40;;;;;;;65.40;61.30;;;8.80;99.90;;;;;;4361168;32;20162;-61
2021/10/23 08:57:07;;;;;;;76.20;71.37;;;8.80;99.90;;;;;;4358054;32;20150;-61
2021/10/23 08:59:34;;;;;;;70.90;66.47;;;8.90;99.90;;;;;;4359126;32;20155;-61
2021/10/23 09:02:03;;;;;;;62.67;58.60;;;9.10;99.90;;;;;;4362663;32;20180;-62
2021/10/23 09:04:32;;;;;;;65.57;61.40;;;9.20;99.90;;;;;;4359634;32;20230;-61
2021/10/23 09:07:10;;;;;;;74.47;70.03;;;9.30;99.90;;;;;;4358250;32;20297;-61
2021/10/23 09:09:51;;;;;;;84.83;79.63;;;9.60;99.90;;;;;;4359546;32;20195;-62
2021/10/23 09:12:22;;;;;;;86.20;81.13;;;9.80;99.90;;;;;;4349324;32;20225;-61
2021/10/23 09:14:58;;;;;;;93.63;87.90;;;10.00;99.90;;;;;;4365027;32;20162;-61
2021/10/23 09:17:25;;;;;;;77.27;72.17;;;10.10;99.90;;;;;;4356868;32;20168;-61
2021/10/23 09:19:55;;;;;;;56.70;52.73;;;10.20;99.90;;;;;;4359988;32;20220;-61
2021/10/23 09:22:26;;;;;;;52.17;48.20;;;10.20;99.90;;;;;;4363292;32;20202;-62
2021/10/23 09:25:10;;;;;;;50.90;47.07;;;10.30;99.90;;;;;;4367679;32;20220;-61
2021/10/23 09:27:49;;;;;;;44.87;40.90;;;10.30;99.90;;;;;;4361965;32;20595;-61
2021/10/23 09:30:17;;;;;;;43.23;39.60;;;10.40;99.90;;;;;;4361091;32;20171;-61
2021/10/23 09:32:50;;;;;;;48.17;44.63;;;10.50;99.90;;;;;;4360218;33;20166;-62
2021/10/23 09:35:21;;;;;;;49.73;46.20;;;10.70;99.90;;;;;;4361311;32;20423;-62
2021/10/23 09:37:48;;;;;;;50.80;46.97;;;10.90;99.90;;;;;;4357256;32;20148;-61
2021/10/23 09:40:21;;;;;;;49.57;46.03;;;11.10;99.90;;;;;;4358496;32;20160;-61
2021/10/23 09:43:04;;;;;;;52.33;48.60;;;11.10;99.90;;;;;;4359214;33;20163;-61
2021/10/23 09:45:31;;;;;;;52.37;48.83;;;11.30;99.90;;;;;;4358828;33;20269;-62
2021/10/23 09:48:09;;;;;;;54.83;51.03;;;11.40;99.90;;;;;;4360813;33;20227;-62
2021/10/23 09:50:38;;;;;;;48.07;44.80;;;11.40;99.90;;;;;;4352050;33;20532;-64
2021/10/23 09:53:07;;;;;;;46.47;43.27;;;11.40;99.90;;;;;;4353758;32;20221;-62
2021/10/23 09:55:35;;;;;;;50.43;46.97;;;11.40;99.90;;;;;;4356569;32;20161;-63
2021/10/23 09:58:07;;;;;;;48.77;45.57;;;11.40;99.90;;;;;;4356553;33;20250;-61
2021/10/23 10:00:34;;;;;;;44.27;41.07;;;11.50;99.90;;;;;;4365995;32;20215;-62
2021/10/23 10:03:01;;;;;;;47.70;44.27;;;11.50;99.90;;;;;;4355419;32;20372;-62
2021/10/23 10:05:30;;;;;;;44.40;41.27;;;11.50;99.90;;;;;;4358097;33;20148;-61
2021/10/23 10:07:58;;;;;;;47.93;44.90;;;11.50;99.90;;;;;;4357875;33;20512;-62
2021/10/23 10:10:25;;;;;;;46.20;43.20;;;11.60;99.90;;;;;;4357664;33;20234;-62
2021/10/23 10:12:53;;;;;;;51.20;47.70;;;11.70;99.90;;;;;;4354987;33;20168;-64
2021/10/23 10:15:20;;;;;;;46.47;43.20;;;11.80;99.90;;;;;;4360498;32;20148;-62
2021/10/23 10:17:47;;;;;;;46.00;43.00;;;11.90;99.90;;;;;;4358997;32;20648;-62
2021/10/23 10:20:14;;;;;;;49.10;45.63;;;11.90;99.90;;;;;;4358709;32;20163;-62
2021/10/23 10:22:52;;;;;;;52.77;49.37;;;12.00;99.90;;;;;;4362158;32;20321;-63
2021/10/23 10:25:21;;;;;;;50.57;47.30;;;12.00;99.90;;;;;;4356984;32;20212;-61
2021/10/23 10:27:52;;;;;;;51.97;48.57;;;12.10;99.90;;;;;;4356213;32;20140;-60
2021/10/23 10:30:27;;;;;;;50.77;47.27;;;12.10;99.90;;;;;;4359342;32;20183;-62
2021/10/23 10:33:14;;;;;;;49.17;45.87;;;12.20;99.90;;;;;;4356551;33;20523;-60
2021/10/23 10:35:56;;;;;;;58.17;54.27;;;12.20;99.90;;;;;;4360748;33;20195;-60
2021/10/23 10:44:18;;;;;;;50.20;46.93;;;12.20;99.90;;;;;;4301816;33;20166;-60
2021/10/23 10:47:08;;;;;;;55.07;50.97;;;12.30;99.90;;;;;;4299508;33;20600;-59
2021/10/23 10:49:53;;;;;;;54.87;51.43;;;12.40;99.90;;;;;;4298164;33;20188;-60
2021/10/23 10:52:54;;;;;;;54.77;51.37;;;12.40;99.90;;;;;;4290316;33;20204;-62
2021/10/23 10:55:22;;;;;;;52.70;49.30;;;12.60;99.90;;;;;;4298818;33;20197;-60
2021/10/23 10:57:57;;;;;;;55.80;52.13;;;12.60;99.90;;;;;;4300414;33;20714;-61
2021/10/23 11:00:48;;;;;;;57.70;53.87;;;12.70;99.90;;;;;;4299390;33;20173;-61
2021/10/23 11:03:35;;;;;;;53.33;49.87;;;12.70;99.90;;;;;;4300526;33;20210;-61
2021/10/23 11:06:45;;;;;;;57.73;53.70;;;12.70;99.90;;;;;;4299191;33;20193;-62
2021/10/23 11:09:41;;;;;;;55.60;51.83;;;12.80;99.90;;;;;;4295950;33;20174;-61
2021/10/23 11:12:18;;;;;;;57.17;53.47;;;12.70;99.90;;;;;;4296951;33;20158;-60
2021/10/23 11:14:46;;;;;;;55.00;51.03;;;12.70;99.90;;;;;;4300835;33;20222;-63
2021/10/23 11:17:21;;;;;;;59.70;55.70;;;12.70;99.90;;;;;;4307053;33;20229;-60
2021/10/23 11:19:51;;;;;;;58.17;54.40;;;12.70;99.90;;;;;;4352053;33;20567;-61
2021/10/23 11:22:20;;;;;;;56.47;52.70;;;12.70;99.90;;;;;;4363358;32;20148;-62
2021/10/23 11:24:49;;;;;;;56.47;52.93;;;12.70;99.90;;;;;;4362871;32;20167;-60
2021/10/23 11:27:31;;;;;;;56.20;52.57;;;12.80;99.90;;;;;;4362955;32;20517;-61
2021/10/23 11:30:09;;;;;;;59.80;55.67;;;12.90;99.90;;;;;;4363844;32;20224;-63
2021/10/23 11:32:38;;;;;;;57.70;54.13;;;12.90;99.90;;;;;;4363322;32;20152;-61
2021/10/23 11:35:07;;;;;;;63.57;59.83;;;12.90;99.90;;;;;;4362162;32;20152;-63
2021/10/23 11:37:34;;;;;;;58.27;54.57;;;13.00;99.90;;;;;;4368967;32;20224;-60
2021/10/23 11:40:03;;;;;;;62.57;58.67;;;13.00;99.90;;;;;;4361516;33;20199;-63
2021/10/23 11:42:32;;;;;;;66.30;62.07;;;13.10;99.90;;;;;;4361497;33;20156;-61
2021/10/23 11:45:00;;;;;;;60.60;57.03;;;13.30;99.90;;;;;;4363010;32;20477;-61
2021/10/23 11:47:30;;;;;;;61.47;57.43;;;13.40;99.90;;;;;;4361944;33;20216;-63
2021/10/23 11:49:59;;;;;;;60.00;55.87;;;13.50;99.90;;;;;;4361713;33;20145;-60
2021/10/23 11:52:27;;;;;;;57.47;53.80;;;13.60;99.90;;;;;;4361397;32;20507;-60
2021/10/23 11:54:56;;;;;;;56.93;53.53;;;13.60;99.90;;;;;;4362533;32;20554;-61
2021/10/23 11:57:37;;;;;;;54.20;50.80;;;13.60;99.90;;;;;;4361268;32;20148;-61
2021/10/23 12:00:07;;;;;;;58.10;54.40;;;13.50;99.90;;;;;;4361902;32;20145;-60
2021/10/23 12:02:48;;;;;;;55.27;51.80;;;13.50;99.90;;;;;;4362375;32;20182;-61
2021/10/23 12:05:23;;;;;;;64.80;60.83;;;13.60;99.90;;;;;;4349155;32;20211;-60
2021/10/23 12:08:08;;;;;;;56.37;52.87;;;13.60;99.90;;;;;;4361889;32;20659;-60
2021/10/23 12:10:56;;;;;;;57.47;54.17;;;13.60;99.90;;;;;;4358777;32;20164;-61
2021/10/23 12:13:23;;;;;;;58.93;55.70;;;13.60;99.90;;;;;;4358274;32;20291;-61
2021/10/23 12:16:00;;;;;;;61.60;58.03;;;13.70;99.90;;;;;;4351012;33;20148;-62
2021/10/23 12:18:29;;;;;;;60.97;57.30;;;13.70;99.90;;;;;;4355080;32;20160;-61
2021/10/23 12:21:08;;;;;;;60.07;56.40;;;13.80;99.90;;;;;;4357363;32;20235;-61
2021/10/23 12:23:49;;;;;;;50.90;48.07;;;13.80;99.90;;;;;;4357671;33;20202;-61
2021/10/23 12:26:17;;;;;;;56.43;53.27;;;13.80;99.90;;;;;;4357916;32;20165;-61
2021/10/23 12:29:01;;;;;;;51.60;48.57;;;13.80;99.90;;;;;;4360106;32;20479;-61
2021/10/23 12:31:28;;;;;;;57.80;54.60;;;13.90;99.90;;;;;;4358174;32;20228;-62
2021/10/23 12:34:06;;;;;;;49.47;46.53;;;13.80;99.90;;;;;;4357101;32;20153;-61
2021/10/23 12:36:33;;;;;;;55.30;52.00;;;13.80;99.90;;;;;;4359926;32;20180;-61
2021/10/23 12:39:20;;;;;;;53.27;50.37;;;13.80;99.90;;;;;;4359819;32;20159;-61
2021/10/23 12:41:47;;;;;;;54.43;51.13;;;13.70;99.90;;;;;;4355522;33;20186;-62
2021/10/23 12:44:16;;;;;;;55.57;52.27;;;13.70;99.90;;;;;;4359791;32;20172;-62
2021/10/23 12:46:43;;;;;;;54.33;51.13;;;13.80;99.90;;;;;;4354322;32;20145;-62
2021/10/23 12:49:11;;;;;;;53.60;50.60;;;13.70;99.90;;;;;;4355960;32;20196;-61